Time;durP1;ratioP1;P1;durP2;ratioP2;P2;SDS_P1;SDS_P2;PMS_P1;PMS_P2;Temp;Humidity;BMP_temperature;BMP_pressure;BME280_temperature;BME280_humidity;BME280_pressure;Samples;Min_cycle;Max_cycle;Signal;HPM_P1;HPM_P2
2022/11/01 00:01:14;;;;;;;1999.90;999.90;;;;;;;9.88;100.00;98415.72;5102834;28;20419;-75
2022/11/01 00:03:40;;;;;;;1999.90;999.90;;;;;;;9.97;100.00;98435.88;5106150;28;20510;-75
2022/11/01 00:06:05;;;;;;;1999.90;999.90;;;;;;;9.95;100.00;98428.00;5099954;28;20035;-75
2022/11/01 00:08:30;;;;;;;1999.90;999.90;;;;;;;10.00;100.00;98424.41;5103565;28;20396;-75
2022/11/01 00:11:08;;;;;;;1999.90;999.90;;;;;;;9.98;100.00;98415.69;5100840;28;20146;-76
2022/11/01 00:13:34;;;;;;;1999.90;999.90;;;;;;;10.13;100.00;98424.66;5099601;28;20022;-76
2022/11/01 00:15:59;;;;;;;1999.90;999.90;;;;;;;10.05;100.00;98422.47;5083735;28;20023;-75
2022/11/01 00:18:24;;;;;;;1999.90;999.90;;;;;;;10.14;100.00;98425.47;5084164;28;20115;-75
2022/11/01 00:20:50;;;;;;;1999.90;999.90;;;;;;;10.10;100.00;98429.81;5102400;28;20075;-74
2022/11/01 00:23:15;;;;;;;1999.90;999.90;;;;;;;10.01;100.00;98426.03;5096598;28;20066;-75
2022/11/01 00:25:40;;;;;;;1999.90;999.90;;;;;;;9.98;100.00;98430.16;5103967;28;20012;-75
2022/11/01 00:28:06;;;;;;;1999.90;999.90;;;;;;;10.04;100.00;98420.00;5102389;28;20073;-74
2022/11/01 00:30:31;;;;;;;1999.90;999.90;;;;;;;10.04;100.00;98420.00;5101656;28;20487;-74
2022/11/01 00:32:57;;;;;;;1999.90;999.90;;;;;;;9.76;100.00;98415.22;5098549;28;20019;-75
2022/11/01 00:35:22;;;;;;;1999.90;999.90;;;;;;;9.57;100.00;98425.91;5100821;28;20389;-74
2022/11/01 00:37:47;;;;;;;1999.90;999.90;;;;;;;9.41;100.00;98427.88;5103953;28;20071;-76
2022/11/01 00:40:13;;;;;;;1999.90;999.90;;;;;;;9.42;100.00;98423.22;5101626;28;20034;-75
2022/11/01 00:42:38;;;;;;;1999.90;999.90;;;;;;;9.38;100.00;98427.59;5100950;28;20028;-75
2022/11/01 00:45:07;;;;;;;1999.90;999.90;;;;;;;9.30;100.00;98422.72;5096244;28;20024;-74
2022/11/01 00:47:32;;;;;;;1999.90;999.90;;;;;;;9.35;100.00;98422.69;5098006;28;20020;-74
2022/11/01 00:49:57;;;;;;;1999.90;999.90;;;;;;;9.30;100.00;98415.34;5101034;28;20498;-74
2022/11/01 00:52:23;;;;;;;1999.90;999.90;;;;;;;9.19;100.00;98415.63;5103878;28;20027;-74
2022/11/01 00:54:48;;;;;;;1999.90;999.90;;;;;;;9.21;100.00;98414.25;5105810;28;20016;-75
2022/11/01 00:57:13;;;;;;;1999.90;999.90;;;;;;;9.21;100.00;98403.31;5104734;28;20455;-76
2022/11/01 00:59:38;;;;;;;1999.90;999.90;;;;;;;9.25;100.00;98406.31;5106889;28;20030;-76
2022/11/01 01:02:04;;;;;;;1999.90;999.90;;;;;;;9.19;100.00;98413.72;5103739;28;20023;-75
2022/11/01 01:04:29;;;;;;;1999.90;999.90;;;;;;;9.12;100.00;98424.91;5104234;28;20054;-74
2022/11/01 01:06:54;;;;;;;1999.90;999.90;;;;;;;9.15;100.00;98418.06;5099258;28;20032;-75
2022/11/01 01:09:20;;;;;;;1999.90;999.90;;;;;;;9.05;100.00;98413.44;5099109;28;20025;-75
2022/11/01 01:11:45;;;;;;;1999.90;999.90;;;;;;;9.08;100.00;98412.88;5099673;28;20042;-75
2022/11/01 01:14:10;;;;;;;1999.90;999.90;;;;;;;9.06;100.00;98419.72;5101043;28;20038;-75
2022/11/01 01:16:36;;;;;;;1999.90;999.90;;;;;;;9.09;100.00;98413.72;5100042;28;20024;-76
2022/11/01 01:19:01;;;;;;;1999.90;999.90;;;;;;;8.99;100.00;98420.00;5103707;28;20133;-73
2022/11/01 01:21:27;;;;;;;1999.90;999.90;;;;;;;8.95;100.00;98418.09;5102651;28;20076;-76
2022/11/01 01:23:53;;;;;;;1999.90;999.90;;;;;;;8.86;100.00;98414.28;5103464;28;20035;-74
2022/11/01 01:26:19;;;;;;;1999.90;999.90;;;;;;;8.85;100.00;98423.56;5099035;28;20454;-75
2022/11/01 01:28:45;;;;;;;1999.90;999.90;;;;;;;8.77;100.00;98415.94;5100417;28;20445;-74
2022/11/01 01:31:11;;;;;;;1999.90;999.90;;;;;;;8.70;100.00;98420.81;5102599;28;20032;-76
2022/11/01 01:33:37;;;;;;;1999.90;999.90;;;;;;;8.77;100.00;98415.94;5099441;28;20054;-77
2022/11/01 01:36:04;;;;;;;1999.90;999.90;;;;;;;8.80;100.00;98418.09;5099723;28;20024;-75
2022/11/01 01:38:30;;;;;;;1999.90;999.90;;;;;;;8.83;100.00;98406.66;5099422;28;20115;-75
2022/11/01 01:41:54;;;;;;;1999.90;999.90;;;;;;;8.85;100.00;98404.47;5105834;28;20015;-75
2022/11/01 01:43:42;;;;;;;1999.90;999.90;;;;;;;8.87;100.00;98400.34;5103191;28;20023;-76
2022/11/01 01:46:09;;;;;;;1999.90;999.90;;;;;;;8.83;100.00;98395.75;5104374;28;20395;-74
2022/11/01 01:48:36;;;;;;;1999.90;999.90;;;;;;;8.86;100.00;98392.47;5110896;28;20024;-76
2022/11/01 01:51:05;;;;;;;1999.90;999.90;;;;;;;8.83;100.00;98382.94;5111234;28;20503;-75
2022/11/01 01:53:35;;;;;;;1999.90;999.90;;;;;;;8.80;100.00;98390.84;5111064;28;20055;-75
2022/11/01 01:56:14;;;;;;;1999.90;999.90;;;;;;;8.83;100.00;98388.38;5110965;28;20032;-76
2022/11/01 01:58:45;;;;;;;1999.90;999.90;;;;;;;8.73;100.00;98390.28;5110977;28;20031;-75
2022/11/01 02:01:10;;;;;;;1999.90;999.90;;;;;;;8.69;100.00;98392.72;5111140;28;20020;-75
2022/11/01 02:03:37;;;;;;;1999.90;999.90;;;;;;;8.70;100.00;98393.56;5110648;28;20051;-76
2022/11/01 02:06:17;;;;;;;1999.90;999.90;;;;;;;8.66;100.00;98403.34;5111198;28;20026;-76
2022/11/01 02:08:45;;;;;;;1999.90;999.90;;;;;;;8.60;100.00;98400.63;5114872;28;20036;-74
2022/11/01 02:11:13;;;;;;;1999.90;999.90;;;;;;;8.60;100.00;98406.09;5114805;28;20461;-75
2022/11/01 02:13:38;;;;;;;1999.90;999.90;;;;;;;8.56;100.00;98393.25;5115222;28;20085;-75
2022/11/01 02:16:13;;;;;;;1999.90;999.90;;;;;;;8.52;100.00;98395.72;5114830;28;20023;-77
2022/11/01 02:18:45;;;;;;;1999.90;999.90;;;;;;;8.53;100.00;98399.25;5115655;28;20106;-75
2022/11/01 02:21:29;;;;;;;1999.90;999.90;;;;;;;8.59;100.00;98393.53;5115291;28;20553;-73
2022/11/01 02:24:22;;;;;;;1999.90;999.90;;;;;;;8.50;100.00;98392.44;5114448;28;20023;-75
2022/11/01 02:26:59;;;;;;;1999.90;999.90;;;;;;;8.55;100.00;98386.97;5114551;28;20031;-73
2022/11/01 02:29:49;;;;;;;1999.90;999.90;;;;;;;8.55;100.00;98386.19;5114526;28;20446;-76
2022/11/01 02:32:25;;;;;;;1999.90;999.90;;;;;;;8.48;100.00;98383.72;5115044;28;20049;-74
2022/11/01 02:35:11;;;;;;;1999.90;999.90;;;;;;;8.48;100.00;98386.44;5115665;28;20134;-75
2022/11/01 02:37:52;;;;;;;1999.90;999.90;;;;;;;8.43;100.00;98389.16;5097837;28;20055;-75
2022/11/01 02:40:25;;;;;;;1999.90;999.90;;;;;;;8.37;100.00;98387.50;5116192;28;20028;-76
2022/11/01 02:42:56;;;;;;;1999.90;999.90;;;;;;;8.33;100.00;98393.78;5114205;28;20023;-76
2022/11/01 02:45:28;;;;;;;1999.90;999.90;;;;;;;8.38;100.00;98391.06;5112830;28;20051;-75
2022/11/01 02:47:56;;;;;;;1999.90;999.90;;;;;;;8.32;100.00;98392.16;5113154;28;20027;-75
2022/11/01 02:50:23;;;;;;;1999.90;999.90;;;;;;;8.22;100.00;98389.34;5113158;28;20023;-75
2022/11/01 02:52:50;;;;;;;1999.90;999.90;;;;;;;8.19;100.00;98393.44;5114298;28;20587;-75
2022/11/01 02:55:34;;;;;;;1999.90;999.90;;;;;;;8.21;100.00;98395.88;5114210;28;20038;-75
2022/11/01 02:58:03;;;;;;;1999.90;999.90;;;;;;;8.21;100.00;98395.88;5115781;28;20028;-75
2022/11/01 03:00:34;;;;;;;1999.90;999.90;;;;;;;8.14;100.00;98390.72;5114077;28;20027;-77
2022/11/01 03:03:08;;;;;;;1999.90;999.90;;;;;;;8.15;100.00;98399.69;5115097;28;20385;-76
2022/11/01 03:05:44;;;;;;;1999.90;999.90;;;;;;;8.15;100.00;98395.06;5121253;28;20559;-76
2022/11/01 03:08:14;;;;;;;1999.90;999.90;;;;;;;8.12;100.00;98402.94;5120017;28;20038;-76
2022/11/01 03:11:11;;;;;;;1999.90;999.90;;;;;;;8.19;100.00;98398.91;5114414;28;20024;-76
2022/11/01 03:13:36;;;;;;;;;;;;;;;8.17;100.00;98400.25;5107886;28;20043;-77
2022/11/01 03:16:11;;;;;;;;;;;;;;;8.03;100.00;98399.94;5113947;28;19957;-77
2022/11/01 03:18:45;;;;;;;1999.90;999.90;;;;;;;8.01;100.00;98407.56;5091853;28;19918;-74
2022/11/01 03:21:20;;;;;;;1999.90;999.90;;;;;;;8.01;100.00;98394.78;5093552;28;20464;-75
2022/11/01 03:23:55;;;;;;;1999.90;999.90;;;;;;;7.93;100.00;98408.06;5093842;28;20039;-77
2022/11/01 03:26:26;;;;;;;1999.90;999.90;;;;;;;7.99;100.00;98410.53;5093888;28;20043;-76
2022/11/01 03:28:58;;;;;;;1999.90;999.90;;;;;;;8.01;100.00;98404.84;5094173;28;20027;-74
2022/11/01 03:31:31;;;;;;;1999.90;999.90;;;;;;;8.02;100.00;98407.28;5093176;28;20077;-74
2022/11/01 03:34:00;;;;;;;1999.90;999.90;;;;;;;7.98;100.00;98402.66;5092797;28;20069;-73
2022/11/01 03:36:31;;;;;;;1999.90;999.90;;;;;;;7.93;100.00;98406.16;5092686;28;20028;-75
2022/11/01 03:39:08;;;;;;;1999.90;999.90;;;;;;;7.96;100.00;98402.91;5092910;28;20024;-73
2022/11/01 03:41:41;;;;;;;1999.90;999.90;;;;;;;7.94;100.00;98405.09;5092785;28;20675;-75
2022/11/01 03:44:09;;;;;;;1999.90;999.90;;;;;;;7.91;100.00;98402.06;5092714;28;20060;-76
2022/11/01 03:46:34;;;;;;;1999.90;999.90;;;;;;;7.91;100.00;98405.63;5093138;28;20077;-74
2022/11/01 03:49:00;;;;;;;1999.90;999.90;;;;;;;7.82;100.00;98400.97;5092794;28;20024;-74
2022/11/01 03:51:25;;;;;;;1999.90;999.90;;;;;;;7.89;100.00;98401.53;5092520;28;20036;-75
2022/11/01 03:53:50;;;;;;;1999.90;999.90;;;;;;;7.86;100.00;98407.53;5092907;28;20556;-73
2022/11/01 03:56:16;;;;;;;1999.90;999.90;;;;;;;7.79;100.00;98401.50;5092404;28;20024;-74
2022/11/01 03:58:42;;;;;;;1999.90;999.90;;;;;;;7.71;100.00;98402.81;5092238;28;20034;-74
2022/11/01 04:01:09;;;;;;;1999.90;999.90;;;;;;;7.61;100.00;98400.06;5092411;28;20032;-75
2022/11/01 04:03:35;;;;;;;1999.90;999.90;;;;;;;7.67;100.00;98395.47;5092092;28;20048;-74
2022/11/01 04:06:00;;;;;;;1999.90;999.90;;;;;;;7.72;100.00;98393.56;5092105;28;20028;-75
2022/11/01 04:08:25;;;;;;;1999.90;999.90;;;;;;;7.74;100.00;98391.38;5092234;28;20852;-75
2022/11/01 04:10:51;;;;;;;1999.90;999.90;;;;;;;7.64;100.00;98393.25;5092276;28;20024;-76
2022/11/01 04:13:16;;;;;;;1999.90;999.90;;;;;;;7.64;100.00;98396.81;5091843;28;20050;-76
2022/11/01 04:21:12;;;;;;;1999.90;999.90;;;;;;;7.65;100.00;98392.16;5092201;28;20403;-76
2022/11/01 04:23:37;;;;;;;1999.90;999.90;;;;;;;7.59;100.00;98398.66;5092161;28;20012;-76
2022/11/01 04:26:04;;;;;;;1999.90;999.90;;;;;;;7.50;100.00;98399.19;5091858;28;20039;-76
2022/11/01 04:28:30;;;;;;;1999.90;999.90;;;;;;;7.50;100.00;98391.03;5073382;28;20412;-76
2022/11/01 04:30:55;;;;;;;1999.90;999.90;;;;;;;7.55;100.00;98388.31;5091572;28;20024;-76
2022/11/01 04:33:20;;;;;;;1999.90;999.90;;;;;;;7.45;100.00;98398.34;5106328;28;20487;-75
2022/11/01 04:35:46;;;;;;;1999.90;999.90;;;;;;;7.49;100.00;98399.44;5110973;28;20020;-75
2022/11/01 04:38:12;;;;;;;1999.90;999.90;;;;;;;7.40;100.00;98398.31;5111285;28;20472;-77
2022/11/01 04:40:39;;;;;;;1999.90;999.90;;;;;;;7.40;100.00;98401.03;5111790;28;20043;-76
2022/11/01 04:43:05;;;;;;;1999.90;999.90;;;;;;;7.31;100.00;98398.00;5111650;28;20035;-76
2022/11/01 04:45:30;;;;;;;1999.90;999.90;;;;;;;7.30;100.00;98390.91;5111752;28;20024;-74
2022/11/01 04:48:12;;;;;;;1999.90;999.90;;;;;;;7.27;100.00;98393.31;5111521;28;20036;-74
2022/11/01 04:50:38;;;;;;;1999.90;999.90;;;;;;;7.28;100.00;98397.69;5111863;28;20019;-75
2022/11/01 04:53:03;;;;;;;1999.90;999.90;;;;;;;7.19;100.00;98402.81;5112080;28;20019;-75
2022/11/01 04:55:28;;;;;;;1999.90;999.90;;;;;;;7.33;100.00;98397.75;5093435;28;20368;-75
2022/11/01 04:57:54;;;;;;;1999.90;999.90;;;;;;;7.32;100.00;98394.19;5093220;28;20031;-74
2022/11/01 05:00:21;;;;;;;1999.90;999.90;;;;;;;7.36;100.00;98398.00;5111710;28;20056;-75
2022/11/01 05:02:47;;;;;;;1999.90;999.90;;;;;;;7.30;100.00;98390.91;5111473;28;20020;-76
2022/11/01 05:05:13;;;;;;;1999.90;999.90;;;;;;;7.31;100.00;98394.44;5111397;28;20032;-76
2022/11/01 05:07:38;;;;;;;1999.90;999.90;;;;;;;7.33;100.00;98389.56;5104909;28;20069;-76
2022/11/01 05:10:06;;;;;;;1999.90;999.90;;;;;;;7.33;100.00;98398.53;5090780;28;20081;-74
2022/11/01 05:12:32;;;;;;;1999.90;999.90;;;;;;;7.26;100.00;98395.25;5100472;28;20373;-75
2022/11/01 05:14:58;;;;;;;1999.90;999.90;;;;;;;7.14;100.00;98402.75;5111671;28;20034;-76
2022/11/01 05:17:24;;;;;;;1999.90;999.90;;;;;;;7.12;100.00;98398.66;5111465;28;20081;-76
2022/11/01 05:19:49;;;;;;;1999.90;999.90;;;;;;;7.19;100.00;98397.38;5115114;28;20024;-75
2022/11/01 05:22:15;;;;;;;1999.90;999.90;;;;;;;7.03;100.00;98395.63;5118628;28;20024;-76
2022/11/01 05:24:41;;;;;;;1999.90;999.90;;;;;;;6.99;100.00;98400.78;5101589;28;20103;-76
2022/11/01 05:27:06;;;;;;;1999.90;999.90;;;;;;;6.88;100.00;98399.06;5091263;28;20139;-76
2022/11/01 05:29:32;;;;;;;1999.90;999.90;;;;;;;6.86;100.00;98403.13;5094847;28;20032;-77
2022/11/01 05:31:57;;;;;;;1999.90;999.90;;;;;;;6.97;100.00;98400.22;5098462;28;20024;-78
2022/11/01 05:34:22;;;;;;;1999.90;999.90;;;;;;;6.95;100.00;98407.81;5097232;28;20107;-76
2022/11/01 05:36:48;;;;;;;1999.90;999.90;;;;;;;6.96;100.00;98408.63;5111090;28;20057;-75
2022/11/01 05:39:13;;;;;;;1999.90;999.90;;;;;;;6.94;100.00;98402.63;5113672;28;20122;-75
2022/11/01 05:41:39;;;;;;;1999.90;999.90;;;;;;;6.98;100.00;98403.75;5110041;28;20028;-76
2022/11/01 05:44:05;;;;;;;1999.90;999.90;;;;;;;6.89;100.00;98408.06;5111025;28;20042;-80
2022/11/01 05:46:30;;;;;;;1999.90;999.90;;;;;;;6.86;100.00;98398.50;5110983;28;20028;-74
2022/11/01 05:48:56;;;;;;;1999.90;999.90;;;;;;;7.00;100.00;98409.75;5110835;28;20023;-75
2022/11/01 05:51:25;;;;;;;1999.90;999.90;;;;;;;6.99;100.00;98399.94;5105644;28;20024;-75
2022/11/01 05:53:51;;;;;;;1999.90;999.90;;;;;;;7.06;100.00;98414.16;5099847;28;20522;-74
2022/11/01 05:56:17;;;;;;;1999.90;999.90;;;;;;;7.13;100.00;98417.47;5097936;28;20032;-75
2022/11/01 05:58:43;;;;;;;1999.90;999.90;;;;;;;7.15;100.00;98415.28;5099615;28;20031;-76
2022/11/01 06:01:16;;;;;;;1999.90;999.90;;;;;;;7.21;100.00;98425.13;5104548;28;20028;-77
2022/11/01 06:03:43;;;;;;;1999.90;999.90;;;;;;;7.27;100.00;98423.25;5099188;28;20044;-75
2022/11/01 06:06:09;;;;;;;1999.90;999.90;;;;;;;7.37;100.00;98426.03;5097151;28;20537;-75
2022/11/01 06:08:34;;;;;;;1999.90;999.90;;;;;;;7.47;100.00;98415.22;5100796;28;20069;-76
2022/11/01 06:11:02;;;;;;;1999.90;999.90;;;;;;;7.59;100.00;98420.44;5100035;28;20015;-76
2022/11/01 06:13:28;;;;;;;1999.90;999.90;;;;;;;7.67;100.00;98406.34;5100498;28;20022;-77
2022/11/01 06:16:01;;;;;;;1999.90;999.90;;;;;;;7.87;100.00;98412.69;5099252;28;20156;-79
2022/11/01 06:18:27;;;;;;;1999.90;999.90;;;;;;;8.02;100.00;98407.28;5098708;28;20008;-78
2022/11/01 06:20:52;;;;;;;1999.90;999.90;;;;;;;8.24;100.00;98417.19;5100311;28;20030;-75
2022/11/01 06:23:18;;;;;;;1999.90;999.90;;;;;;;8.42;100.00;98420.25;5098269;28;20020;-76
2022/11/01 06:25:43;;;;;;;1999.90;999.90;;;;;;;8.61;100.00;98429.53;5100065;28;20051;-75
2022/11/01 06:28:12;;;;;;;1999.90;999.90;;;;;;;8.69;100.00;98428.19;5094087;28;20032;-75
2022/11/01 06:30:42;;;;;;;1999.90;999.90;;;;;;;8.83;100.00;98432.03;5094470;28;20043;-77
2022/11/01 06:33:08;;;;;;;1999.90;999.90;;;;;;;9.07;100.00;98429.56;5098315;28;20476;-75
2022/11/01 06:35:34;;;;;;;1999.90;999.90;;;;;;;9.24;100.00;98434.72;5104962;28;20034;-75
2022/11/01 06:38:05;;;;;;;1999.90;999.90;;;;;;;9.52;100.00;98437.66;5100244;28;20027;-75
2022/11/01 06:40:31;;;;;;;1999.90;999.90;;;;;;;10.16;100.00;98439.66;5099350;28;20050;-75
2022/11/01 06:43:01;;;;;;;1999.90;999.90;;;;;;;10.34;100.00;98443.69;5098871;28;20031;-75
2022/11/01 06:45:27;;;;;;;1999.90;999.90;;;;;;;10.48;100.00;98453.72;5101790;28;20038;-74
2022/11/01 06:47:53;;;;;;;1999.90;999.90;;;;;;;10.70;100.00;98453.31;5100606;28;20024;-74
2022/11/01 06:50:18;;;;;;;1999.90;999.90;;;;;;;10.71;100.00;98455.75;5098565;28;20166;-74
2022/11/01 06:52:43;;;;;;;1999.90;999.90;;;;;;;11.03;100.00;98477.16;5084479;28;20057;-74
2022/11/01 06:55:08;;;;;;;1999.90;999.90;;;;;;;11.41;100.00;98470.00;5103450;28;20439;-74
2022/11/01 06:57:34;;;;;;;1999.90;999.90;;;;;;;11.90;100.00;98474.47;5104115;28;20024;-75
2022/11/01 06:59:59;;;;;;;1999.90;999.90;;;;;;;12.78;100.00;98482.97;5103959;28;20468;-75
2022/11/01 07:02:25;;;;;;;1999.90;999.90;;;;;;;14.00;100.00;98484.50;5103669;28;20085;-76
2022/11/01 07:04:50;;;;;;;1999.90;999.90;;;;;;;14.94;100.00;98482.81;5100957;28;20484;-74
2022/11/01 07:07:16;;;;;;;1999.90;999.90;;;;;;;15.02;100.00;98487.56;5082454;28;20067;-75
2022/11/01 07:09:41;;;;;;;1999.90;999.90;;;;;;;15.26;100.00;98488.09;5111079;28;20106;-75
2022/11/01 07:12:07;;;;;;;1999.90;999.90;;;;;;;15.74;100.00;98496.56;5104998;28;20058;-74
2022/11/01 07:14:32;;;;;;;1999.90;999.90;;;;;;;17.19;92.35;98494.63;5112395;28;20027;-75
2022/11/01 07:16:57;;;;;;;1999.90;999.90;;;;;;;17.77;85.35;98496.84;5111044;28;20023;-76
2022/11/01 07:19:23;;;;;;;1999.90;999.90;;;;;;;18.50;78.94;98502.00;5095106;28;20107;-76
2022/11/01 07:21:48;;;;;;;1999.90;999.90;;;;;;;18.49;78.00;98507.84;5093164;28;20134;-75
2022/11/01 07:24:14;;;;;;;1999.90;999.90;;;;;;;18.86;74.03;98507.00;5094415;28;20081;-75
2022/11/01 07:26:39;;;;;;;1999.90;999.90;;;;;;;18.57;74.08;98504.25;5092830;28;20028;-74
2022/11/01 07:29:05;;;;;;;1999.90;999.90;;;;;;;18.79;71.07;98512.28;5111984;28;20066;-74
2022/11/01 07:31:32;;;;;;;1999.90;999.90;;;;;;;18.85;70.78;98516.50;5112773;28;20070;-76
2022/11/01 07:33:57;;;;;;;1999.90;999.90;;;;;;;18.79;69.54;98512.28;5109071;28;20051;-76
2022/11/01 07:36:23;;;;;;;1999.90;999.90;;;;;;;18.49;70.39;98513.38;5092739;28;20103;-75
2022/11/01 07:38:48;;;;;;;1999.90;999.90;;;;;;;18.14;71.58;98507.97;5092562;28;20031;-73
2022/11/01 07:41:14;;;;;;;1999.90;999.90;;;;;;;18.58;71.43;98505.88;5101093;28;20081;-74
2022/11/01 07:43:39;;;;;;;1999.90;999.90;;;;;;;19.08;68.73;98508.66;5112976;28;20399;-74
2022/11/01 07:46:06;;;;;;;1999.90;999.90;;;;;;;19.05;68.80;98521.25;5112669;28;20039;-72
2022/11/01 07:48:32;;;;;;;1999.90;999.90;;;;;;;19.05;68.80;98521.25;5112642;28;20558;-74
2022/11/01 07:50:58;;;;;;;1999.90;999.90;;;;;;;18.64;69.46;98515.63;5112601;28;20012;-75
2022/11/01 07:53:24;;;;;;;1999.90;999.90;;;;;;;19.35;67.03;98508.13;5112880;28;20023;-74
2022/11/01 07:55:50;;;;;;;1999.90;999.90;;;;;;;19.36;67.33;98506.19;5098572;28;20043;-75
2022/11/01 07:58:16;;;;;;;1999.90;999.90;;;;;;;18.43;70.50;98507.22;5092120;28;20028;-75
2022/11/01 08:00:42;;;;;;;1999.90;999.90;;;;;;;18.74;70.79;98509.69;5092030;28;20027;-75
2022/11/01 08:03:11;;;;;;;1999.90;999.90;;;;;;;18.78;70.65;98516.22;5091802;28;20036;-75
2022/11/01 08:05:37;;;;;;;1999.90;999.90;;;;;;;19.17;68.99;98513.00;5093725;28;20028;-74
2022/11/01 08:08:04;;;;;;;1999.90;999.90;;;;;;;18.95;69.30;98488.34;5112805;28;20019;-74
2022/11/01 08:10:30;;;;;;;1999.90;999.90;;;;;;;19.08;68.17;98508.66;5109214;28;20062;-75
2022/11/01 08:13:17;;;;;;;1999.90;999.90;;;;;;;19.06;68.75;98510.97;5102389;28;20116;-75
2022/11/01 08:15:43;;;;;;;1999.90;999.90;;;;;;;19.08;67.93;98503.09;5093201;28;20028;-75
2022/11/01 08:18:09;;;;;;;1999.90;999.90;;;;;;;19.48;66.26;98509.84;5092167;28;20032;-76
2022/11/01 08:20:34;;;;;;;1999.90;999.90;;;;;;;19.18;67.57;98503.53;5093068;28;20031;-74
2022/11/01 08:23:00;;;;;;;1999.90;999.90;;;;;;;19.91;65.76;98498.31;5093061;28;20028;-75
2022/11/01 08:25:26;;;;;;;1999.90;999.90;;;;;;;19.99;64.77;98491.84;5091802;28;20028;-75
2022/11/01 08:27:51;;;;;;;1999.90;999.90;;;;;;;20.53;62.26;98491.72;5091586;28;20030;-76
2022/11/01 08:30:18;;;;;;;1999.90;999.90;;;;;;;20.30;64.26;98486.63;5091614;28;20020;-75
2022/11/01 08:32:44;;;;;;;1999.90;999.90;;;;;;;19.65;64.63;98484.69;5091715;28;20012;-75
2022/11/01 08:35:13;;;;;;;1999.90;999.90;;;;;;;19.81;65.43;98486.84;5073740;28;20491;-75
2022/11/01 08:37:52;;;;;;;1999.90;999.90;;;;;;;18.59;68.54;98474.25;5091400;28;20022;-77
2022/11/01 08:40:18;;;;;;;1999.90;999.90;;;;;;;20.79;61.23;98481.06;5091511;28;20059;-76
2022/11/01 08:42:43;;;;;;;1999.90;999.90;;;;;;;20.69;61.49;98478.75;5091443;28;20024;-75
2022/11/01 08:45:10;;;;;;;1999.90;999.90;;;;;;;20.37;62.57;98474.09;5091438;28;20047;-75
2022/11/01 08:47:36;;;;;;;1999.90;999.90;;;;;;;19.84;63.98;98475.84;5091631;28;20028;-75
2022/11/01 08:50:02;;;;;;;1999.90;999.90;;;;;;;20.81;59.59;98474.00;5091537;28;20031;-75
2022/11/01 08:52:27;;;;;;;1999.90;999.90;;;;;;;20.74;58.68;98475.72;5091234;28;20119;-75
2022/11/01 08:54:52;;;;;;;1999.90;999.90;;;;;;;21.22;58.14;98467.31;5091640;28;20035;-75
2022/11/01 08:57:18;;;;;;;1999.90;999.90;;;;;;;21.85;55.73;98470.31;5091199;28;20115;-75
2022/11/01 08:59:43;;;;;;;1999.90;999.90;;;;;;;22.29;53.63;98474.69;5091459;28;20028;-75
2022/11/01 09:02:11;;;;;;;1999.90;999.90;;;;;;;21.95;55.10;98463.44;5090147;28;20392;-75
2022/11/01 09:04:37;;;;;;;1999.90;999.90;;;;;;;21.28;57.54;98457.56;5095754;28;20042;-76
2022/11/01 09:07:02;;;;;;;1999.90;999.90;;;;;;;22.27;54.58;98457.50;5102638;28;20115;-75
2022/11/01 09:09:28;;;;;;;1999.90;999.90;;;;;;;22.32;54.05;98446.09;5080915;28;20028;-74
2022/11/01 09:11:54;;;;;;;1999.90;999.90;;;;;;;22.61;54.28;98452.38;5099852;28;20520;-75
2022/11/01 09:14:22;;;;;;;1999.90;999.90;;;;;;;22.60;54.11;98450.75;5098019;28;20685;-74
2022/11/01 09:16:48;;;;;;;1999.90;999.90;;;;;;;22.86;53.41;98454.63;5097916;28;20027;-73
2022/11/01 09:19:13;;;;;;;1999.90;999.90;;;;;;;22.58;53.63;98453.09;5100168;28;20024;-75
2022/11/01 09:21:39;;;;;;;1999.90;999.90;;;;;;;22.26;56.39;98452.31;5097645;28;20073;-75
2022/11/01 09:24:07;;;;;;;1999.90;999.90;;;;;;;21.37;58.98;98443.50;5099883;28;20032;-75
2022/11/01 09:26:32;;;;;;;1999.90;999.90;;;;;;;22.63;54.92;98438.88;5097004;28;20108;-74
2022/11/01 09:28:57;;;;;;;1999.90;999.90;;;;;;;22.71;55.39;98451.84;5097927;28;20548;-74
2022/11/01 09:31:23;;;;;;;1999.90;999.90;;;;;;;23.19;53.73;98451.34;5098833;28;20031;-74
2022/11/01 09:33:48;;;;;;;1999.90;999.90;;;;;;;23.87;51.70;98459.94;5107663;28;20032;-74
2022/11/01 09:36:13;;;;;;;1999.90;999.90;;;;;;;23.85;50.95;98461.50;5101727;28;20043;-76
2022/11/01 09:38:39;;;;;;;1999.90;999.90;;;;;;;22.68;53.77;98458.16;5104358;28;20045;-80
2022/11/01 09:41:26;;;;;;;1999.90;999.90;;;;;;;23.70;51.53;98459.59;5104920;28;20279;-75
2022/11/01 09:43:53;;;;;;;1999.90;999.90;;;;;;;24.14;50.95;98458.09;5104276;28;20092;-76
2022/11/01 09:46:25;;;;;;;1999.90;999.90;;;;;;;24.44;50.30;98461.78;5082018;28;20039;-77
2022/11/01 09:48:52;;;;;;;1999.90;999.90;;;;;;;24.42;50.58;98463.34;5091337;28;20024;-77
2022/11/01 09:51:21;;;;;;;1999.90;999.90;;;;;;;24.31;50.32;98460.38;5105051;28;20031;-81
2022/11/01 09:53:50;;;;;;;1999.90;999.90;;;;;;;24.40;49.61;98457.34;5086668;28;20069;-79
2022/11/01 09:56:39;;;;;;;1999.90;999.90;;;;;;;23.76;51.92;98458.13;5104674;28;20059;-78
2022/11/01 09:59:24;;;;;;;1999.90;999.90;;;;;;;23.50;53.06;98455.19;5108604;28;20062;-84
2022/11/01 10:02:24;;;;;;;1999.90;999.90;;;;;;;24.61;50.52;98445.69;5106838;28;20035;-75
2022/11/01 10:04:59;;;;;;;1999.90;999.90;;;;;;;24.61;50.79;98442.88;5094997;28;20040;-79
2022/11/01 10:07:31;;;;;;;;;;;;;;;24.61;50.41;98437.28;5100234;28;20036;-85
2022/11/01 10:10:33;;;;;;;1999.90;999.90;;;;;;;24.08;52.16;98431.59;5080170;28;19952;-78
2022/11/01 10:13:11;;;;;;;1999.90;999.90;;;;;;;24.31;51.12;98434.38;5090595;28;20054;-77
2022/11/01 10:16:04;;;;;;;1999.90;999.90;;;;;;;25.33;48.93;98430.34;5104501;28;20053;-77
2022/11/01 10:18:45;;;;;;;1999.90;999.90;;;;;;;25.58;47.73;98424.28;5104869;28;20035;-82
2022/11/01 10:21:14;;;;;;;1999.90;999.90;;;;;;;25.75;48.24;98418.06;5102546;28;20039;-79
2022/11/01 10:23:49;;;;;;;1999.90;999.90;;;;;;;25.88;47.77;98416.59;5083774;28;20879;-81
2022/11/01 10:26:27;;;;;;;1999.90;999.90;;;;;;;26.04;47.63;98417.97;5082896;28;20024;-80
2022/11/01 10:29:19;;;;;;;1999.90;999.90;;;;;;;26.14;47.65;98424.88;5103385;28;20114;-76
2022/11/01 10:31:47;;;;;;;1999.90;999.90;;;;;;;26.03;47.92;98415.56;5067974;28;20055;-74
2022/11/01 10:34:21;;;;;;;1999.90;999.90;;;;;;;26.43;46.66;98415.53;5104254;28;20024;-74
2022/11/01 10:36:48;;;;;;;1999.90;999.90;;;;;;;25.72;48.51;98413.22;5100530;28;20030;-74
2022/11/01 10:39:48;;;;;;;1999.90;999.90;;;;;;;26.22;47.63;98409.72;5100554;28;20042;-73
2022/11/01 10:42:17;;;;;;;1999.90;999.90;;;;;;;25.92;48.94;98406.22;5101317;28;20048;-73
2022/11/01 10:44:53;;;;;;;1999.90;999.90;;;;;;;25.39;49.62;98395.22;5113556;28;20026;-75
2022/11/01 10:47:20;;;;;;;1999.90;999.90;;;;;;;25.08;50.77;98387.22;5103201;28;20032;-73
2022/11/01 10:50:00;;;;;;;1999.90;999.90;;;;;;;25.78;49.59;98383.66;5104739;28;20119;-73
2022/11/01 10:52:30;;;;;;;1999.90;999.90;;;;;;;26.28;47.64;98394.16;5095815;28;20032;-73
2022/11/01 10:54:58;;;;;;;1999.90;999.90;;;;;;;25.60;49.28;98389.06;5113850;28;20024;-74
2022/11/01 10:57:44;;;;;;;1999.90;999.90;;;;;;;25.55;50.01;98378.19;5095426;28;20115;-73
2022/11/01 11:00:15;;;;;;;1999.90;999.90;;;;;;;25.32;50.49;98386.72;5094136;28;20024;-77
2022/11/01 11:02:47;;;;;;;1999.90;999.90;;;;;;;25.27;50.63;98372.25;5112930;28;20027;-74
2022/11/01 11:05:16;;;;;;;1999.90;999.90;;;;;;;25.61;50.26;98373.06;5113447;28;20031;-73
2022/11/01 11:07:43;;;;;;;1999.90;999.90;;;;;;;25.25;50.80;98367.00;5094484;28;20035;-74